Aérodrome :
LOGIN :

S'inscrire | Disclaimer

   EN    FR    IT 

 










Légende :    VFR   VFR Marginal   IFR   IFR Intensif   IFR Très Intensif
Visi : 
Plafond : 
>= 8 km
>= 3000ft
5 à 8 km
1000 à 3000 ft
1500m à 5 km
500 à 1000 ft
800 à 1500m
200 à 500 ft
< 800m
< 200 ft
Symboles :   Orages  Brouillard  Fortes neiges  Fortes précipitations  Vent > 20 kt
SIGMETs :   Divers  Orages  Givrage  Turbulence  Onde Orograph.  Cendres Volcan.







- Altitude de l'aérodrome : 47 ft
- Code IATA : BDS


LIBR - Casale Arpt. Brindisi

DERNIER METAR :
  • 190750Z 22004KT 4000 BR NSC 08/06 Q1023

METARs EXPIRÉS :
  • 190720Z 21002KT 3000 BR NSC 07/06 Q1023
  • 190650Z 23005KT 2500 R31/1300N BCFG NSC 05/04 Q1023
  • 190620Z VRB02KT 1500 R31/1300D BCFG NSC 04/04 Q1022
  • 190550Z 20002KT 3500 BR NSC 05/04 Q1022
  • 190520Z 21003KT 3500 BR NSC 05/04 Q1022

TAF TAF LIBR
Valide du 19 à 06h jusqu'au 20 à 06h UTC


190500Z 1906/2006 VRB05KT 1500 BCFG NSC
BECMG 1906/1908 7000
BECMG 1920/1922 3000 BR
TEMPO 2000/2006 0800 FG
Pas de NOTAMs connus pour ce terrain.
2 SIGMETs publiés pour la FIR Brindisi (LIBB) :
 
Annulation du SIGMET 1 
LIBB SIGMET 2 VALID 190628/190820 LIIB
LIBB BRINDISI FIR CNL SIGMET 1 190620/190820 NC=
SIGMET 1  ANNULÉ :
Cendres volcaniques
LIBB SIGMET 1 VALID 190620/190820 LIIB
LIBB BRINDISI FIR VA ERUPTION MT ETNA PSN N3744 E01500 VA CLD OBS AT 0613Z MOV NW 8KT INTSF FL080/150=



MET'MAP, la Météo Aéronautique d'un coup d'oeil ! - Copyright ORBIFLY Décembre 2007 - Disclaimer

ORBIFLY MET'MAP TEAM :

Programmation & Développement : Alexandra Zaïnal
Conception & Développement : Baudouin d'Aumeries
Co-Programmation & Développement : Marc-Olivier Méhu
Soutien technique & logistique : Manuel Goepfert

Contact : metmap@orbifly.com




SOURCES & CREDITS :

   NOAA